Terminal Aerodrome Forecast
Issued by NWS Boise, ID

Home | Current Version | Previous Version | Text Only | Print | Product List | Glossary On
Versions: 1 2 3 4 5 6 7 8 9 10 11 12 13 14 15 16 17 18 19 20 21 22 23 24 25
000
FTUS45 KBOI 300520
TAFBOI
TAF
KBOI 300520Z 3006/3106 VRB05KT P6SM VCTS SCT070CB BKN100
      TEMPO 3006/3007 32010G20KT P6SM
     FM300700 32010KT P6SM SCT100 BKN200
     FM310000 32011KT P6SM SCT100 BKN200
     FM310300 32015G25KT P6SM VCSH BKN100=

USA.gov is the U.S. government's official web portal to all federal, state and local government web resources and services.